Time;durP1;ratioP1;P1;durP2;ratioP2;P2;SDS_P1;SDS_P2;PMS_P1;PMS_P2;Temp;Humidity;BMP_temperature;BMP_pressure;BME280_temperature;BME280_humidity;BME280_pressure;Samples;Min_cycle;Max_cycle;Signal;HPM_P1;HPM_P2
2024/03/12 00:00:46;;;;;;;5.77;1.37;;;;;;;-1.81;69.05;102070.16;5084167;28;20455;-81
2024/03/12 00:03:15;;;;;;;2.30;1.20;;;;;;;-1.82;69.16;102063.28;5085670;28;20446;-81
2024/03/12 00:05:42;;;;;;;3.27;1.37;;;;;;;-1.85;69.36;102064.81;5090435;28;20477;-80
2024/03/12 00:08:09;;;;;;;5.10;1.50;;;;;;;-1.87;69.16;102053.59;5087877;28;20506;-82
2024/03/12 00:10:36;;;;;;;1.80;1.20;;;;;;;-1.86;69.25;102052.78;5082498;28;20430;-80
2024/03/12 00:13:04;;;;;;;3.03;1.30;;;;;;;-1.89;69.19;102050.06;5075401;28;20467;-80
2024/03/12 00:15:32;;;;;;;4.10;1.27;;;;;;;-1.93;69.57;102046.50;5080106;28;20507;-81
2024/03/12 00:18:04;;;;;;;2.53;1.37;;;;;;;-1.91;69.39;102055.16;5075797;28;20472;-81
2024/03/12 00:20:34;;;;;;;1.43;1.33;;;;;;;-1.92;69.22;102045.69;5082027;28;20444;-82
2024/03/12 00:23:05;;;;;;;3.70;1.83;;;;;;;-1.95;69.13;102042.97;5078308;28;20506;-81
2024/03/12 00:25:33;;;;;;;1.97;1.30;;;;;;;-1.97;69.57;102042.00;5080018;28;20460;-81
2024/03/12 00:28:00;;;;;;;2.90;1.10;;;;;;;-2.00;69.40;102032.47;5085658;28;20479;-82
2024/03/12 00:30:28;;;;;;;4.53;1.30;;;;;;;-1.99;69.74;102033.38;5078020;28;20459;-82
2024/03/12 00:32:56;;;;;;;2.20;1.53;;;;;;;-2.00;69.17;102031.59;5073911;28;20443;-81
2024/03/12 00:35:24;;;;;;;1.27;1.00;;;;;;;-2.02;69.42;102034.09;5083550;28;20444;-80
2024/03/12 00:37:56;;;;;;;2.13;1.40;;;;;;;-2.02;69.52;102044.38;5078368;28;20452;-82
2024/03/12 00:40:33;;;;;;;2.57;1.27;;;;;;;-2.05;69.82;102030.50;5076405;28;20478;-82
2024/03/12 00:43:00;;;;;;;3.67;1.50;;;;;;;-2.04;69.17;102029.69;5080072;28;20440;-81
2024/03/12 00:45:36;;;;;;;1.10;1.00;;;;;;;-2.06;69.02;102036.44;5080365;28;20418;-82
2024/03/12 00:48:03;;;;;;;1.50;1.30;;;;;;;-2.06;69.37;102037.31;5076664;28;20502;-82
2024/03/12 00:50:30;;;;;;;2.10;1.40;;;;;;;-2.09;69.03;102031.16;5083977;28;20442;-81
2024/03/12 00:53:01;;;;;;;3.53;1.30;;;;;;;-2.10;69.26;102026.84;5080467;28;20464;-81
2024/03/12 00:55:28;;;;;;;2.43;1.13;;;;;;;-2.10;69.30;102024.28;5079722;28;20480;-81
2024/03/12 00:57:55;;;;;;;1.50;0.90;;;;;;;-2.10;69.36;102020.03;5074084;28;20536;-81
2024/03/12 01:00:25;;;;;;;2.17;1.20;;;;;;;-2.18;69.36;102013.63;5080781;28;20442;-81
2024/03/12 01:02:54;;;;;;;3.50;1.00;;;;;;;-2.12;69.56;102024.19;5075343;28;21035;-81
2024/03/12 01:05:24;;;;;;;1.83;1.17;;;;;;;-2.13;69.51;102025.88;5078287;28;21579;-82
2024/03/12 01:07:53;;;;;;;2.43;1.40;;;;;;;-2.13;69.75;102019.88;5074191;28;20493;-82
2024/03/12 01:10:22;;;;;;;1.20;0.90;;;;;;;-2.13;69.95;102025.00;5077757;28;20445;-81
2024/03/12 01:12:50;;;;;;;1.87;1.30;;;;;;;-2.14;69.65;102024.13;5080325;28;21031;-82
2024/03/12 01:15:18;;;;;;;2.60;1.50;;;;;;;-2.14;69.46;102020.66;5081101;28;20453;-81
2024/03/12 01:17:45;;;;;;;2.83;1.13;;;;;;;-2.16;70.10;102014.59;5078092;28;20444;-82
2024/03/12 01:20:16;;;;;;;2.60;1.10;;;;;;;-2.23;69.24;102008.28;5082748;28;20448;-82
2024/03/12 01:22:44;;;;;;;1.87;1.00;;;;;;;-2.15;69.78;102024.03;5076495;28;20484;-82
2024/03/12 01:25:11;;;;;;;2.73;1.03;;;;;;;-2.16;69.80;102014.59;5080597;28;20450;-81
2024/03/12 01:27:41;;;;;;;4.60;1.30;;;;;;;-2.15;70.18;102019.78;5078109;28;21013;-82
2024/03/12 01:30:14;;;;;;;3.27;1.40;;;;;;;-2.16;70.08;102023.16;5080505;28;20440;-83
2024/03/12 01:32:41;;;;;;;2.83;1.30;;;;;;;-2.33;69.70;101990.69;5073504;28;20444;-81
2024/03/12 01:35:09;;;;;;;3.57;1.33;;;;;;;-2.19;68.98;102015.31;5082423;28;20961;-81
2024/03/12 01:37:36;;;;;;;2.10;1.20;;;;;;;-2.20;70.06;102012.66;5076342;28;20432;-80
2024/03/12 01:40:19;;;;;;;1.97;1.03;;;;;;;-2.18;69.89;102021.31;5074730;28;20445;-81
2024/03/12 01:42:48;;;;;;;2.50;1.13;;;;;;;-2.19;69.94;102020.44;5080257;28;20457;-81
2024/03/12 01:45:16;;;;;;;3.47;1.20;;;;;;;-2.21;70.02;102019.50;5079621;28;20447;-82
2024/03/12 01:47:43;;;;;;;3.60;1.20;;;;;;;-2.21;69.75;102027.19;5081418;28;20479;-82
2024/03/12 01:50:11;;;;;;;4.43;1.30;;;;;;;-2.22;69.95;102011.75;5081746;28;20452;-82
2024/03/12 01:52:38;;;;;;;2.00;1.30;;;;;;;-2.23;69.69;102007.41;5078087;28;20923;-82
2024/03/12 01:55:06;;;;;;;3.20;1.30;;;;;;;-2.21;70.09;102010.94;5075999;28;20447;-81
2024/03/12 01:57:33;;;;;;;2.00;1.07;;;;;;;-2.41;70.08;101976.63;5075375;28;20445;-82
2024/03/12 02:00:04;;;;;;;2.43;1.10;;;;;;;-2.22;69.46;102006.63;5078136;28;20492;-82
2024/03/12 02:02:31;;;;;;;2.83;1.30;;;;;;;-2.24;69.70;102006.53;5075562;28;20452;-81
2024/03/12 02:04:58;;;;;;;2.83;1.30;;;;;;;-2.24;70.00;102008.22;5080722;28;20443;-82
2024/03/12 02:07:25;;;;;;;2.43;1.20;;;;;;;-2.23;69.90;102005.72;5075773;28;20535;-81
2024/03/12 02:09:52;;;;;;;1.70;1.20;;;;;;;-2.25;69.67;102004.78;5075508;28;20772;-80
2024/03/12 02:12:19;;;;;;;2.80;1.40;;;;;;;-2.26;69.98;101999.56;5072311;28;20455;-80
2024/03/12 02:14:46;;;;;;;4.13;1.10;;;;;;;-2.26;70.06;102003.00;5080540;28;20803;-80
2024/03/12 02:17:15;;;;;;;1.87;1.20;;;;;;;-2.41;69.69;101979.19;5079411;28;20440;-80
2024/03/12 02:19:42;;;;;;;4.27;1.30;;;;;;;-2.28;70.18;101994.38;5083263;28;20471;-81
2024/03/12 02:22:09;;;;;;;3.37;1.10;;;;;;;-2.29;69.90;101995.16;5085074;28;20466;-81
2024/03/12 02:24:37;;;;;;;2.20;1.10;;;;;;;-2.29;70.21;101992.59;5080106;28;20436;-81
2024/03/12 02:27:05;;;;;;;1.90;1.13;;;;;;;-2.29;70.41;101992.59;5083477;28;20491;-81
2024/03/12 02:29:32;;;;;;;3.03;1.10;;;;;;;-2.31;70.00;101981.41;5082281;28;20437;-80
2024/03/12 02:31:59;;;;;;;2.40;1.13;;;;;;;-2.29;70.21;101974.66;5082568;28;20925;-81
2024/03/12 02:34:29;;;;;;;1.93;1.13;;;;;;;-2.30;69.93;101980.59;5078374;28;20799;-81
2024/03/12 02:36:56;;;;;;;1.73;1.20;;;;;;;-2.31;70.16;101972.81;5082475;28;20450;-81
2024/03/12 02:39:23;;;;;;;1.80;1.00;;;;;;;-2.30;70.21;101989.97;5080203;28;20524;-81
2024/03/12 02:41:51;;;;;;;2.50;1.07;;;;;;;-2.33;70.17;101988.13;5084872;28;20447;-81
2024/03/12 02:44:21;;;;;;;1.80;1.13;;;;;;;-2.32;69.90;101987.31;5083851;28;20540;-82
2024/03/12 02:46:49;;;;;;;1.10;0.93;;;;;;;-2.32;69.85;101989.00;5081884;28;20459;-81
2024/03/12 02:49:16;;;;;;;3.17;1.23;;;;;;;-2.38;69.98;101974.19;5078582;28;20441;-82
2024/03/12 02:51:45;;;;;;;3.17;1.07;;;;;;;-2.37;70.30;101981.97;5082524;28;20514;-82
2024/03/12 02:54:13;;;;;;;3.60;1.20;;;;;;;-2.38;70.03;101981.91;5078203;28;20447;-80
2024/03/12 02:56:40;;;;;;;1.60;1.23;;;;;;;-2.37;70.31;101983.63;5082255;28;20932;-81
2024/03/12 02:59:11;;;;;;;4.13;1.30;;;;;;;-2.39;69.65;101983.59;5081269;28;20434;-82
2024/03/12 03:01:38;;;;;;;4.20;1.43;;;;;;;-2.40;70.35;101980.94;5078391;28;20437;-81
2024/03/12 03:04:06;;;;;;;5.00;1.17;;;;;;;-2.40;70.17;101983.50;5084241;28;20452;-81
2024/03/12 03:06:33;;;;;;;1.77;1.10;;;;;;;-2.40;69.89;101979.25;5085536;28;20552;-81
2024/03/12 03:09:00;;;;;;;1.23;0.93;;;;;;;-2.41;70.09;101985.19;5083546;28;20475;-81
2024/03/12 03:11:28;;;;;;;3.47;1.10;;;;;;;-2.42;70.04;101987.69;5082712;28;20441;-80
2024/03/12 03:13:55;;;;;;;4.03;1.17;;;;;;;-2.45;70.08;101980.72;5076675;28;20446;-82
2024/03/12 03:16:27;;;;;;;3.37;1.20;;;;;;;-2.46;70.16;101980.63;5080582;28;20852;-81
2024/03/12 03:18:54;;;;;;;1.70;1.03;;;;;;;-2.48;70.18;101980.56;5084078;28;20506;-81
2024/03/12 03:21:21;;;;;;;4.03;1.00;;;;;;;-2.51;69.64;101976.94;5081469;28;20464;-81
2024/03/12 03:23:48;;;;;;;3.23;1.17;;;;;;;-2.51;70.12;101982.06;5079684;28;20465;-82
2024/03/12 03:26:15;;;;;;;1.87;1.00;;;;;;;-2.54;69.78;101989.63;5085636;28;20447;-81
2024/03/12 03:28:42;;;;;;;2.07;1.20;;;;;;;-2.58;69.49;101980.91;5074544;28;20512;-82
2024/03/12 03:31:11;;;;;;;1.83;1.10;;;;;;;-2.61;69.97;101981.63;5078817;28;20456;-81
2024/03/12 03:33:39;;;;;;;2.47;1.20;;;;;;;-2.60;70.27;101985.06;5081584;28;20452;-82
2024/03/12 03:36:07;;;;;;;2.10;1.17;;;;;;;-2.64;69.92;101990.84;5085033;28;20444;-82
2024/03/12 03:38:39;;;;;;;3.47;1.10;;;;;;;-2.65;69.70;101987.41;5075637;28;20455;-81
2024/03/12 03:41:07;;;;;;;1.90;1.17;;;;;;;-2.67;69.68;101993.25;5079985;28;20542;-83
2024/03/12 03:43:34;;;;;;;2.00;1.30;;;;;;;-2.68;69.92;101991.47;5078040;28;20437;-82
2024/03/12 03:46:01;;;;;;;1.33;1.10;;;;;;;-2.72;69.51;101982.75;5079057;28;20442;-81
2024/03/12 03:48:29;;;;;;;2.93;1.20;;;;;;;-2.74;69.84;101981.78;5082213;28;20484;-81
2024/03/12 03:50:57;;;;;;;1.97;1.20;;;;;;;-2.82;69.92;101967.75;5084894;28;20431;-81
2024/03/12 03:53:24;;;;;;;3.13;1.00;;;;;;;-2.78;69.85;101974.78;5078206;28;20803;-82
2024/03/12 03:55:51;;;;;;;1.47;1.27;;;;;;;-2.81;69.81;101967.81;5080460;28;20914;-82
2024/03/12 03:58:18;;;;;;;2.37;1.23;;;;;;;-2.80;69.44;101973.81;5079214;28;20432;-81
2024/03/12 04:00:45;;;;;;;3.30;1.33;;;;;;;-2.87;69.65;101966.63;5077842;28;20439;-81
2024/03/12 04:03:12;;;;;;;2.17;1.37;;;;;;;-2.87;69.91;101964.94;5080701;28;20491;-82
2024/03/12 04:05:39;;;;;;;2.60;1.30;;;;;;;-2.87;69.60;101964.06;5080785;28;20478;-82
2024/03/12 04:08:08;;;;;;;2.30;1.23;;;;;;;-2.89;69.24;101970.78;5075551;28;20475;-82
2024/03/12 04:10:35;;;;;;;0.90;0.83;;;;;;;-3.01;69.49;101955.66;5077092;28;20439;-81
2024/03/12 04:13:02;;;;;;;3.90;1.30;;;;;;;-2.95;69.65;101965.34;5074928;28;20476;-81
2024/03/12 04:15:29;;;;;;;1.67;1.23;;;;;;;-2.95;69.83;101973.03;5077891;28;20437;-81
2024/03/12 04:17:56;;;;;;;1.20;1.10;;;;;;;-2.99;69.76;101965.97;5083403;28;20436;-81
2024/03/12 04:20:23;;;;;;;2.40;1.13;;;;;;;-2.99;69.77;101965.97;5084677;28;20458;-81
2024/03/12 04:22:50;;;;;;;1.77;1.10;;;;;;;-3.03;69.42;101963.25;5076186;28;20464;-81
2024/03/12 04:25:19;;;;;;;3.93;1.60;;;;;;;-3.04;69.91;101958.94;5075950;28;20431;-80
2024/03/12 04:27:46;;;;;;;3.43;1.30;;;;;;;-3.07;69.71;101963.91;5075150;28;20482;-80
2024/03/12 04:30:13;;;;;;;3.20;1.20;;;;;;;-3.07;69.82;101966.47;5076913;28;20438;-82
2024/03/12 04:32:40;;;;;;;3.13;1.30;;;;;;;-3.09;69.80;101960.38;5079611;28;20450;-82
2024/03/12 04:35:09;;;;;;;2.67;1.30;;;;;;;-3.14;69.69;101948.16;5085369;28;20954;-81
2024/03/12 04:37:36;;;;;;;2.03;1.17;;;;;;;-3.18;69.43;101952.22;5075602;28;20476;-83
2024/03/12 04:40:06;;;;;;;1.60;1.30;;;;;;;-3.15;69.89;101956.63;5074819;28;20447;-81
2024/03/12 04:42:35;;;;;;;2.37;1.20;;;;;;;-3.16;69.00;101957.41;5080114;28;20815;-81
2024/03/12 04:45:04;;;;;;;3.37;1.20;;;;;;;-3.17;69.54;101948.88;5083556;28;20509;-83
2024/03/12 04:47:32;;;;;;;1.93;1.10;;;;;;;-3.19;69.77;101950.50;5083250;28;20458;-81
2024/03/12 04:49:59;;;;;;;3.03;1.10;;;;;;;-3.21;69.23;101946.09;5084711;28;20458;-81
2024/03/12 04:52:26;;;;;;;2.23;1.37;;;;;;;-3.27;69.83;101944.09;5074807;28;20912;-80
2024/03/12 04:54:53;;;;;;;1.70;0.97;;;;;;;-3.24;69.46;101946.81;5075034;28;20462;-81
2024/03/12 04:57:20;;;;;;;1.77;1.10;;;;;;;-3.30;69.76;101938.81;5084691;28;20462;-81
2024/03/12 04:59:49;;;;;;;2.97;1.20;;;;;;;-3.30;69.29;101941.38;5080022;28;20450;-81
2024/03/12 05:02:16;;;;;;;2.20;1.10;;;;;;;-3.28;69.40;101944.88;5076918;28;20433;-81
2024/03/12 05:04:43;;;;;;;3.00;1.23;;;;;;;-3.31;69.29;101944.69;5076944;28;20514;-81
2024/03/12 05:07:11;;;;;;;2.80;1.07;;;;;;;-3.30;69.43;101943.94;5076973;28;20476;-81
2024/03/12 05:09:38;;;;;;;1.83;1.13;;;;;;;-3.34;69.69;101934.31;5075356;28;20473;-83
2024/03/12 05:12:06;;;;;;;1.57;0.90;;;;;;;-3.40;69.35;101923.75;5087878;28;20471;-83
2024/03/12 05:14:33;;;;;;;1.70;1.20;;;;;;;-3.35;69.39;101940.25;5076718;28;20451;-82
2024/03/12 05:17:02;;;;;;;1.70;1.23;;;;;;;-3.37;69.42;101936.72;5083382;28;20466;-83
2024/03/12 05:19:29;;;;;;;3.10;1.20;;;;;;;-3.41;69.39;101922.00;5077760;28;20485;-81
2024/03/12 05:21:56;;;;;;;1.57;1.33;;;;;;;-3.42;69.33;101925.34;5079205;28;21008;-80
2024/03/12 05:24:24;;;;;;;1.77;1.27;;;;;;;-3.44;69.31;101927.84;5079253;28;20445;-82
2024/03/12 05:26:54;;;;;;;1.80;1.20;;;;;;;-3.47;69.51;101930.25;5082590;28;20446;-82
2024/03/12 05:29:26;;;;;;;2.37;1.17;;;;;;;-3.47;69.35;101932.81;5079670;28;20518;-82
2024/03/12 05:31:53;;;;;;;2.73;1.50;;;;;;;-3.49;69.35;101939.50;5075022;28;20486;-82
2024/03/12 05:34:29;;;;;;;4.43;1.63;;;;;;;-3.51;69.13;101931.72;5074114;28;20507;-82
2024/03/12 05:37:03;;;;;;;1.47;1.27;;;;;;;-3.52;69.36;101940.22;5081908;28;20442;-82
2024/03/12 05:39:47;;;;;;;2.33;1.20;;;;;;;-3.58;69.50;101929.66;5075154;28;20467;-81
2024/03/12 05:50:30;;;;;;;1.87;1.00;;;;;;;-3.58;69.43;101939.03;5080353;28;20425;-81
2024/03/12 05:52:58;;;;;;;2.80;1.47;;;;;;;-3.59;69.34;101948.38;5079742;28;20437;-81
2024/03/12 05:55:25;;;;;;;2.63;1.50;;;;;;;-3.60;69.58;101941.47;5081578;28;20441;-80
2024/03/12 05:57:52;;;;;;;3.77;1.33;;;;;;;-3.58;69.78;101950.13;5085474;28;20461;-82
2024/03/12 06:00:19;;;;;;;2.27;1.50;;;;;;;-3.57;69.64;101945.88;5076803;28;20461;-77
2024/03/12 06:02:46;;;;;;;4.93;1.60;;;;;;;-3.59;69.77;101943.25;5076453;28;20442;-79
2024/03/12 06:05:13;;;;;;;2.20;1.00;;;;;;;-3.59;69.82;101945.81;5086585;28;20443;-78
2024/03/12 06:07:44;;;;;;;1.63;1.17;;;;;;;-3.58;69.63;101947.56;5086594;28;20447;-78
2024/03/12 06:10:12;;;;;;;1.90;1.20;;;;;;;-3.58;69.89;101945.00;5083269;28;20444;-79
2024/03/12 06:12:39;;;;;;;2.10;1.03;;;;;;;-3.54;69.74;101943.50;5081281;28;20446;-78
2024/03/12 06:15:07;;;;;;;2.03;1.23;;;;;;;-3.54;69.99;101935.81;5083006;28;20445;-78
2024/03/12 06:17:34;;;;;;;2.83;1.47;;;;;;;-3.52;69.81;101945.34;5077396;28;20962;-79
2024/03/12 06:20:01;;;;;;;3.07;1.67;;;;;;;-3.52;69.81;101947.91;5084352;28;20974;-80
2024/03/12 06:22:29;;;;;;;3.73;1.23;;;;;;;-3.48;69.82;101943.81;5081325;28;20973;-79
2024/03/12 06:24:57;;;;;;;2.43;1.50;;;;;;;-3.47;70.04;101948.16;5080770;28;20437;-80
2024/03/12 06:27:24;;;;;;;2.93;1.77;;;;;;;-3.43;70.12;101949.19;5081565;28;20457;-79
2024/03/12 06:29:53;;;;;;;2.67;1.37;;;;;;;-3.47;70.41;101943.03;5081036;28;20516;-79
2024/03/12 06:32:20;;;;;;;4.27;1.30;;;;;;;-3.39;70.00;101951.09;5075590;28;20848;-78
2024/03/12 06:34:48;;;;;;;4.33;1.53;;;;;;;-3.36;70.06;101947.03;5083674;28;20443;-80
2024/03/12 06:37:16;;;;;;;6.40;1.50;;;;;;;-3.34;70.74;101945.41;5083979;28;21024;-80
2024/03/12 06:39:44;;;;;;;2.10;1.20;;;;;;;-3.33;70.40;101944.66;5080493;28;20449;-79
2024/03/12 06:42:13;;;;;;;2.70;1.43;;;;;;;-3.29;71.00;101943.13;5082562;28;20451;-78
2024/03/12 06:44:42;;;;;;;4.47;1.47;;;;;;;-3.25;70.69;101945.03;5080225;28;20454;-78
2024/03/12 06:47:10;;;;;;;2.60;1.23;;;;;;;-3.21;71.14;101943.53;5081146;28;20455;-79
2024/03/12 06:49:38;;;;;;;3.57;1.70;;;;;;;-3.20;70.79;101941.03;5081684;28;20846;-79
2024/03/12 06:52:06;;;;;;;4.43;1.67;;;;;;;-3.16;71.40;101937.84;5078718;28;20449;-81
2024/03/12 06:54:34;;;;;;;3.00;1.70;;;;;;;-3.09;71.20;101952.72;5081824;28;20457;-82
2024/03/12 06:57:04;;;;;;;5.73;1.70;;;;;;;-3.07;70.85;101953.69;5087861;28;20928;-82
2024/03/12 06:59:33;;;;;;;5.73;1.97;;;;;;;-3.01;70.99;101953.09;5077896;28;20821;-81
2024/03/12 07:02:00;;;;;;;4.43;1.73;;;;;;;-2.96;71.17;101949.13;5081738;28;20432;-81
2024/03/12 07:04:34;;;;;;;3.43;1.27;;;;;;;-2.97;71.74;101944.78;5084635;28;20910;-82
2024/03/12 07:07:03;;;;;;;3.50;1.73;;;;;;;-2.89;71.78;101956.28;5080235;28;21036;-81
2024/03/12 07:09:35;;;;;;;3.33;1.83;;;;;;;-2.81;72.26;101949.00;5082126;28;20474;-81
2024/03/12 07:12:04;;;;;;;2.93;1.67;;;;;;;-2.82;72.19;101942.13;5081098;28;20495;-82
2024/03/12 07:14:40;;;;;;;5.20;1.67;;;;;;;-2.70;72.61;101947.00;5082918;28;20465;-81
2024/03/12 07:17:07;;;;;;;2.53;1.73;;;;;;;-2.66;72.27;101944.63;5079002;28;20434;-83
2024/03/12 07:19:35;;;;;;;2.87;1.50;;;;;;;-2.56;72.51;101940.00;5079472;28;20464;-83
2024/03/12 07:22:02;;;;;;;5.23;2.10;;;;;;;-2.51;72.77;101947.06;5083132;28;20527;-84
2024/03/12 07:24:29;;;;;;;2.97;1.93;;;;;;;-2.43;72.56;101942.34;5081431;28;20950;-83
2024/03/12 07:26:56;;;;;;;2.77;1.93;;;;;;;-2.37;73.08;101938.41;5087425;28;20435;-84
2024/03/12 07:29:24;;;;;;;2.70;1.50;;;;;;;-2.29;72.87;101935.31;5087409;28;20537;-82
2024/03/12 07:31:53;;;;;;;4.23;1.70;;;;;;;-2.23;73.29;101930.47;5083175;28;20508;-82
2024/03/12 07:34:21;;;;;;;3.23;1.43;;;;;;;-2.15;73.08;101924.03;5083309;28;20433;-83
2024/03/12 07:36:48;;;;;;;3.97;1.70;;;;;;;-2.20;72.71;101903.31;5090743;28;21003;-82
2024/03/12 07:39:24;;;;;;;4.47;1.57;;;;;;;-1.89;73.33;101932.09;5082591;28;20943;-82
2024/03/12 07:41:53;;;;;;;2.70;1.70;;;;;;;-1.78;73.16;101930.91;5088447;28;20936;-84
2024/03/12 07:44:22;;;;;;;2.17;1.40;;;;;;;-1.66;72.61;101930.56;5088885;28;20428;-82
2024/03/12 07:46:50;;;;;;;2.13;1.57;;;;;;;-1.53;73.42;101940.59;5092529;28;20451;-81
2024/03/12 07:49:21;;;;;;;3.80;1.60;;;;;;;-1.42;73.44;101936.84;5085141;28;20506;-82
2024/03/12 07:51:49;;;;;;;2.27;1.27;;;;;;;-1.30;73.10;101929.66;5087523;28;20461;-82
2024/03/12 07:54:18;;;;;;;3.53;1.67;;;;;;;-1.20;73.29;101930.94;5086855;28;20437;-82
2024/03/12 07:56:48;;;;;;;2.73;1.80;;;;;;;-1.08;73.58;101921.22;5084428;28;20468;-83
2024/03/12 07:59:16;;;;;;;4.33;2.30;;;;;;;-0.93;73.92;101915.84;5087580;28;20523;-80
2024/03/12 08:01:45;;;;;;;3.13;1.87;;;;;;;-0.76;73.86;101910.56;5089783;28;20494;-79
2024/03/12 08:04:13;;;;;;;2.03;1.67;;;;;;;-0.55;74.12;101908.84;5088117;28;20453;-77
2024/03/12 08:06:43;;;;;;;3.00;1.77;;;;;;;-0.37;74.33;101908.75;5089168;28;20509;-77
2024/03/12 08:09:11;;;;;;;4.57;2.00;;;;;;;-0.24;74.17;101892.97;5087958;28;20488;-76
2024/03/12 08:11:38;;;;;;;4.77;1.93;;;;;;;-0.02;74.21;101906.69;5083848;28;20531;-77
2024/03/12 08:14:05;;;;;;;2.67;1.57;;;;;;;0.13;74.01;101895.25;5090151;28;20445;-76
2024/03/12 08:16:33;;;;;;;1.60;1.50;;;;;;;0.33;73.89;101906.31;5083470;28;20436;-80
2024/03/12 08:19:01;;;;;;;3.50;2.00;;;;;;;0.49;74.42;101894.03;5091962;28;20444;-78
2024/03/12 08:21:28;;;;;;;2.87;1.80;;;;;;;0.58;73.99;101878.91;5076591;28;20526;-78
2024/03/12 08:23:58;;;;;;;3.83;2.03;;;;;;;0.84;73.49;101895.28;5086756;28;20485;-80
2024/03/12 08:26:27;;;;;;;3.90;1.90;;;;;;;1.02;73.55;101892.44;5087966;28;20860;-82
2024/03/12 08:28:55;;;;;;;4.67;1.83;;;;;;;1.17;73.73;101894.69;5087157;28;20526;-79
2024/03/12 08:31:23;;;;;;;4.43;1.90;;;;;;;1.16;73.32;101862.00;5087304;28;20890;-79
2024/03/12 08:33:50;;;;;;;1.63;1.47;;;;;;;1.30;73.26;101863.31;5085139;28;20453;-78
2024/03/12 08:36:17;;;;;;;2.97;1.77;;;;;;;1.52;72.96;101876.94;5085074;28;20475;-80
2024/03/12 08:38:45;;;;;;;3.40;1.60;;;;;;;1.65;72.88;101877.38;5079394;28;20456;-78
2024/03/12 08:41:13;;;;;;;3.83;1.80;;;;;;;1.78;72.68;101877.75;5089768;28;20429;-82
2024/03/12 08:43:41;;;;;;;4.70;1.77;;;;;;;1.89;72.67;101876.38;5092640;28;20985;-81
2024/03/12 08:46:08;;;;;;;3.17;1.60;;;;;;;1.92;72.20;101853.22;5085092;28;20458;-79
2024/03/12 08:48:36;;;;;;;4.93;2.17;;;;;;;1.96;72.13;101846.44;5088280;28;20527;-78
2024/03/12 08:51:04;;;;;;;4.33;2.00;;;;;;;2.17;72.02;101859.13;5086666;28;20506;-80
2024/03/12 08:53:33;;;;;;;5.40;2.07;;;;;;;2.25;71.67;101861.09;5088825;28;20498;-80
2024/03/12 08:56:00;;;;;;;3.03;1.60;;;;;;;2.30;71.50;101869.88;5091818;28;20504;-78
2024/03/12 08:58:27;;;;;;;3.00;2.20;;;;;;;2.36;71.23;101872.63;5089227;28;20509;-80
2024/03/12 09:00:55;;;;;;;4.50;1.90;;;;;;;2.41;70.91;101872.72;5089793;28;20455;-81
2024/03/12 09:03:22;;;;;;;2.73;1.57;;;;;;;2.37;70.97;101864.03;5081977;28;20449;-80
2024/03/12 09:05:50;;;;;;;2.53;1.80;;;;;;;2.45;70.99;101863.38;5088009;28;20516;-80
2024/03/12 09:08:17;;;;;;;3.37;1.70;;;;;;;2.48;70.73;101863.47;5084662;28;20438;-79
2024/03/12 09:10:47;;;;;;;4.93;1.70;;;;;;;2.43;70.65;101845.25;5088637;28;20481;-82
2024/03/12 09:13:16;;;;;;;5.37;2.00;;;;;;;2.55;70.82;101860.22;5094688;28;20444;-80
2024/03/12 09:15:45;;;;;;;2.67;1.30;;;;;;;2.58;70.40;101857.72;5086977;28;20433;-80
2024/03/12 09:18:14;;;;;;;3.40;1.80;;;;;;;2.64;70.71;101863.03;5082403;28;20450;-78
2024/03/12 09:20:42;;;;;;;4.00;1.70;;;;;;;2.71;70.08;101869.28;5082872;28;20448;-78
2024/03/12 09:23:09;;;;;;;3.33;1.83;;;;;;;2.76;70.11;101870.28;5087331;28;20453;-77
2024/03/12 09:25:36;;;;;;;3.97;1.70;;;;;;;2.77;69.77;101859.97;5078136;28;20527;-78
2024/03/12 09:28:04;;;;;;;4.20;2.10;;;;;;;2.72;70.01;101853.78;5077343;28;20445;-78
2024/03/12 09:30:31;;;;;;;4.23;1.80;;;;;;;2.78;69.29;101848.78;5087631;28;20606;-77
2024/03/12 09:33:00;;;;;;;3.73;2.10;;;;;;;2.81;69.06;101853.16;5081421;28;20462;-77
2024/03/12 09:35:28;;;;;;;2.67;1.70;;;;;;;2.72;68.96;101829.66;5087834;28;20454;-77
2024/03/12 09:37:55;;;;;;;2.43;1.77;;;;;;;2.92;68.61;101840.53;5085587;28;20934;-82
2024/03/12 09:40:25;;;;;;;3.93;1.93;;;;;;;2.94;68.53;101844.03;5079601;28;20485;-85
2024/03/12 09:42:55;;;;;;;3.33;2.27;;;;;;;2.97;68.02;101846.69;5077994;28;20461;-84
2024/03/12 09:45:23;;;;;;;4.17;1.83;;;;;;;3.07;67.84;101843.53;5084097;28;20979;-81
2024/03/12 09:47:52;;;;;;;3.97;1.83;;;;;;;3.18;67.38;101844.63;5084107;28;20446;-81
2024/03/12 09:50:25;;;;;;;2.63;1.77;;;;;;;3.34;67.45;101843.31;5088775;28;20474;-84
2024/03/12 09:52:54;;;;;;;3.50;1.80;;;;;;;3.45;67.55;101828.06;5090259;28;20952;-81
2024/03/12 09:55:22;;;;;;;2.60;1.50;;;;;;;3.50;66.81;101845.44;5083955;28;20453;-86
2024/03/12 09:57:49;;;;;;;4.13;2.00;;;;;;;3.53;67.20;101836.00;5090753;28;20443;-79
2024/03/12 10:00:19;;;;;;;3.30;1.67;;;;;;;3.54;66.75;101822.22;5085606;28;20450;-76
2024/03/12 10:02:48;;;;;;;2.63;1.50;;;;;;;3.63;66.07;101831.06;5085604;28;20477;-85
2024/03/12 10:05:16;;;;;;;3.47;1.80;;;;;;;3.67;66.06;101827.72;5091435;28;20447;-87
2024/03/12 10:08:12;;;;;;;2.80;2.00;;;;;;;3.72;66.09;101832.97;5084860;28;20449;-85
2024/03/12 10:10:41;;;;;;;3.63;2.03;;;;;;;3.76;65.47;101832.22;5088012;28;20482;-89
2024/03/12 10:13:12;;;;;;;2.23;1.67;;;;;;;3.79;65.12;101831.41;5087204;28;20443;-80
2024/03/12 10:15:50;;;;;;;3.33;1.90;;;;;;;3.79;64.62;101826.22;5092120;28;20444;-79
2024/03/12 10:18:18;;;;;;;3.67;1.90;;;;;;;3.81;63.98;101829.72;5086605;28;20840;-79
2024/03/12 10:20:49;;;;;;;3.40;2.03;;;;;;;3.70;64.00;101809.66;5090857;28;20454;-82
2024/03/12 10:23:20;;;;;;;3.80;1.90;;;;;;;3.82;64.04;101828.88;5088469;28;20451;-81
2024/03/12 10:25:48;;;;;;;1.80;1.43;;;;;;;3.84;64.44;101827.19;5083858;28;20440;-81
2024/03/12 10:28:16;;;;;;;5.73;2.10;;;;;;;3.84;63.88;101825.50;5088147;28;20527;-86
2024/03/12 10:30:45;;;;;;;4.60;2.20;;;;;;;3.84;63.31;101822.91;5086558;28;20480;-81
2024/03/12 10:33:18;;;;;;;3.27;2.00;;;;;;;3.86;63.70;101820.34;5085910;28;20473;-81
2024/03/12 10:35:46;;;;;;;3.07;1.70;;;;;;;3.84;63.33;101812.56;5088736;28;20442;-80
2024/03/12 10:38:14;;;;;;;4.00;1.93;;;;;;;3.87;62.88;101827.28;5093128;28;20444;-80
2024/03/12 10:40:45;;;;;;;3.53;2.20;;;;;;;3.76;62.53;101808.06;5088187;28;20463;-77
2024/03/12 10:43:13;;;;;;;3.53;1.80;;;;;;;3.81;62.90;101816.75;5090709;28;20446;-77
2024/03/12 10:45:40;;;;;;;2.67;1.77;;;;;;;3.80;63.07;101812.44;5089831;28;20461;-78
2024/03/12 10:48:09;;;;;;;4.07;1.63;;;;;;;3.86;63.07;101817.75;5091037;28;20435;-78
2024/03/12 10:50:40;;;;;;;4.30;1.80;;;;;;;3.86;62.56;101820.34;5089547;28;20487;-80
2024/03/12 10:53:11;;;;;;;4.17;2.10;;;;;;;3.84;62.56;101819.41;5088433;28;20444;-81
2024/03/12 10:55:40;;;;;;;3.60;2.13;;;;;;;3.80;61.97;101808.13;5093343;28;20487;-79
2024/03/12 10:58:10;;;;;;;3.40;1.80;;;;;;;3.84;62.38;101811.66;5083421;28;20440;-78
2024/03/12 11:00:39;;;;;;;2.30;1.60;;;;;;;3.82;62.27;101808.19;5090250;28;20523;-81
2024/03/12 11:03:09;;;;;;;3.63;2.07;;;;;;;3.80;62.21;101804.69;5087271;28;20949;-82
2024/03/12 11:05:38;;;;;;;5.00;1.67;;;;;;;3.80;62.21;101810.72;5095517;28;20474;-81
2024/03/12 11:08:09;;;;;;;3.07;1.97;;;;;;;3.74;61.90;101802.81;5089023;28;20475;-78
2024/03/12 11:10:37;;;;;;;4.07;2.10;;;;;;;3.76;61.71;101795.09;5083389;28;20494;-78
2024/03/12 11:13:07;;;;;;;2.93;1.70;;;;;;;3.78;61.79;101796.00;5085791;28;20465;-77
2024/03/12 11:15:36;;;;;;;3.07;1.70;;;;;;;3.78;60.79;101793.41;5084380;28;20447;-78
2024/03/12 11:18:05;;;;;;;3.33;2.00;;;;;;;3.81;61.21;101799.53;5093787;28;20893;-82
2024/03/12 11:20:33;;;;;;;3.00;1.60;;;;;;;3.82;61.05;101800.41;5089299;28;20439;-81
2024/03/12 11:23:01;;;;;;;3.60;1.87;;;;;;;3.72;60.41;101781.19;5093760;28;20448;-76
2024/03/12 11:25:32;;;;;;;2.60;1.77;;;;;;;3.84;61.28;101803.88;5095266;28;20461;-76
2024/03/12 11:28:20;;;;;;;2.80;1.70;;;;;;;3.85;60.84;101797.88;5088439;28;20451;-82
2024/03/12 11:30:59;;;;;;;3.77;1.80;;;;;;;3.71;60.83;101769.13;5087723;28;21009;-83
2024/03/12 11:33:48;;;;;;;2.83;1.70;;;;;;;3.86;61.06;101789.28;5086034;28;20448;-84
2024/03/12 11:36:22;;;;;;;2.57;1.23;;;;;;;3.86;60.90;101784.09;5089205;28;20451;-83
2024/03/12 11:38:51;;;;;;;3.63;1.40;;;;;;;3.88;60.92;101777.25;5087310;28;20450;-83
2024/03/12 11:41:19;;;;;;;1.87;0.97;;;;;;;3.85;61.38;101770.28;5089295;28;20447;-82